Time;durP1;ratioP1;P1;durP2;ratioP2;P2;SDS_P1;SDS_P2;PMS_P1;PMS_P2;Temp;Humidity;BMP_temperature;BMP_pressure;BME280_temperature;BME280_humidity;BME280_pressure;Samples;Min_cycle;Max_cycle;Signal;HPM_P1;HPM_P2
2023/03/16 00:01:59;;;;;;;6.95;2.58;;;;;;;0.16;100.00;101805.50;10429444;28;20068;-76
2023/03/16 00:07:00;;;;;;;6.25;2.65;;;;;;;0.10;100.00;101765.53;10450353;28;20049;-75
2023/03/16 00:12:03;;;;;;;9.73;2.45;;;;;;;0.30;100.00;101795.94;10414924;28;20041;-75
2023/03/16 00:17:05;;;;;;;4.63;2.28;;;;;;;0.33;100.00;101778.50;10436107;28;20114;-74
2023/03/16 00:22:05;;;;;;;10.63;2.70;;;;;;;0.39;100.00;101783.25;10430440;28;20293;-75
2023/03/16 00:27:06;;;;;;;11.02;3.40;;;;;;;0.52;100.00;101775.50;10405206;28;20061;-75
2023/03/16 00:32:07;;;;;;;7.43;2.97;;;;;;;0.55;100.00;101769.75;10373167;28;20374;-75
2023/03/16 00:37:07;;;;;;;9.10;2.83;;;;;;;0.58;100.00;101766.72;10406661;28;20044;-75
2023/03/16 00:42:09;;;;;;;12.77;2.97;;;;;;;0.46;100.00;101746.38;10373861;28;20316;-75
2023/03/16 00:47:13;;;;;;;8.45;2.33;;;;;;;0.57;100.00;101781.25;10389502;28;20064;-76
2023/03/16 00:52:13;;;;;;;5.03;2.33;;;;;;;0.62;100.00;101769.94;10387992;28;20046;-75
2023/03/16 00:57:17;;;;;;;4.72;2.45;;;;;;;0.67;100.00;101764.84;10330092;28;20661;-75
2023/03/16 01:02:22;;;;;;;7.78;2.45;;;;;;;0.68;100.00;101741.31;10355994;28;20038;-76
2023/03/16 01:07:22;;;;;;;6.00;2.45;;;;;;;0.87;100.00;101761.81;10358097;28;20030;-75
2023/03/16 01:12:23;;;;;;;7.13;3.10;;;;;;;0.66;100.00;101708.09;10357414;28;20437;-75
2023/03/16 01:17:23;;;;;;;9.53;2.70;;;;;;;0.88;100.00;101745.38;10347652;28;20068;-75
2023/03/16 01:22:24;;;;;;;5.28;2.72;;;;;;;0.88;100.00;101736.41;10334347;28;20049;-75
2023/03/16 01:27:25;;;;;;;4.97;1.95;;;;;;;0.84;100.00;101716.94;10299970;28;20034;-76
2023/03/16 01:32:25;;;;;;;5.95;2.53;;;;;;;1.06;100.00;101725.41;10316338;28;20038;-75
2023/03/16 01:37:26;;;;;;;9.98;2.65;;;;;;;1.14;100.00;101706.41;10343430;28;20104;-67
2023/03/16 01:42:26;;;;;;;10.45;3.67;;;;;;;1.27;100.00;101700.44;10375405;28;20037;-75
2023/03/16 01:47:27;;;;;;;9.55;2.17;;;;;;;1.28;100.00;101692.16;10402703;28;20038;-77
2023/03/16 01:52:28;;;;;;;4.60;2.20;;;;;;;1.22;100.00;101682.00;10339117;28;20034;-75
2023/03/16 01:57:34;;;;;;;6.10;2.83;;;;;;;1.26;100.00;101677.91;10355386;28;20034;-75
2023/03/16 02:02:34;;;;;;;6.23;2.50;;;;;;;1.32;100.00;101682.63;10341789;28;20041;-75
2023/03/16 02:07:39;;;;;;;5.93;2.00;;;;;;;0.80;100.00;101594.44;10381015;28;20513;-75
2023/03/16 02:12:40;;;;;;;9.85;2.67;;;;;;;1.30;100.00;101665.69;10378941;28;20351;-75
2023/03/16 02:17:41;;;;;;;5.57;3.08;;;;;;;1.33;100.00;101656.34;10362034;28;20068;-76
2023/03/16 02:22:44;;;;;;;7.13;3.47;;;;;;;1.22;100.00;101627.75;10368321;28;20065;-75
2023/03/16 02:27:59;;;;;;;8.82;2.70;;;;;;;1.31;100.00;101633.97;10370773;28;20060;-75
2023/03/16 02:33:00;;;;;;;8.00;2.97;;;;;;;1.41;100.00;101626.47;10369267;28;20038;-77
2023/03/16 02:38:00;;;;;;;7.82;3.65;;;;;;;1.49;100.00;101628.28;10392279;28;20041;-75
2023/03/16 02:43:06;;;;;;;11.00;4.18;;;;;;;1.35;100.00;101606.31;10391516;28;20505;-76
2023/03/16 02:48:13;;;;;;;7.80;2.65;;;;;;;1.56;100.00;101629.28;10377831;28;20034;-76
2023/03/16 02:53:14;;;;;;;8.73;3.20;;;;;;;1.57;100.00;101614.69;10378484;28;20041;-76
2023/03/16 02:58:14;;;;;;;6.28;2.60;;;;;;;1.73;100.00;101627.34;10369827;28;20042;-75
2023/03/16 03:03:15;;;;;;;6.47;2.95;;;;;;;1.77;100.00;101618.66;10368222;28;20064;-75
2023/03/16 03:08:16;;;;;;;9.45;3.10;;;;;;;1.87;100.00;101612.19;10369185;28;20061;-76
2023/03/16 03:13:16;;;;;;;10.65;3.00;;;;;;;1.80;100.00;101590.34;10366497;28;20046;-75
2023/03/16 03:18:17;;;;;;;8.70;3.53;;;;;;;1.99;100.00;101606.16;10352472;28;20236;-75
2023/03/16 03:23:17;;;;;;;8.30;2.80;;;;;;;2.10;100.00;101610.31;10382386;28;20069;-75
2023/03/16 03:28:18;;;;;;;7.72;2.53;;;;;;;2.09;100.00;101602.34;10351981;28;20093;-71
2023/03/16 03:33:18;;;;;;;4.20;2.60;;;;;;;2.03;100.00;101576.78;10368882;28;20041;-75
2023/03/16 03:38:19;;;;;;;4.13;2.33;;;;;;;2.25;100.00;101598.66;10362050;28;20482;-76
2023/03/16 03:43:20;;;;;;;5.22;2.78;;;;;;;2.24;100.00;101588.84;10330658;28;20045;-76
2023/03/16 03:48:20;;;;;;;5.35;2.63;;;;;;;2.29;100.00;101575.53;10363990;28;20045;-76
2023/03/16 03:53:20;;;;;;;5.63;3.13;;;;;;;2.26;100.00;101567.78;10353397;28;20039;-76
2023/03/16 03:58:21;;;;;;;10.35;3.47;;;;;;;2.32;100.00;101564.31;10388820;28;20034;-70
2023/03/16 04:03:21;;;;;;;7.25;2.50;;;;;;;2.08;100.00;101511.03;10353358;28;20042;-76
2023/03/16 04:08:22;;;;;;;6.63;3.08;;;;;;;2.48;100.00;101566.91;10349522;28;20061;-76
2023/03/16 04:13:22;;;;;;;8.23;2.75;;;;;;;2.43;100.00;101544.84;10333854;28;20034;-76
2023/03/16 04:18:23;;;;;;;4.85;2.63;;;;;;;2.48;100.00;101542.44;10369377;28;20049;-76
2023/03/16 04:23:24;;;;;;;4.55;2.63;;;;;;;2.57;100.00;101546.75;10390025;28;20063;-76
2023/03/16 04:28:25;;;;;;;5.68;2.63;;;;;;;2.54;100.00;101528.09;10372415;28;20037;-77
2023/03/16 04:33:26;;;;;;;7.90;2.83;;;;;;;2.54;100.00;101525.38;10357692;28;20037;-76
2023/03/16 04:38:27;;;;;;;5.28;2.72;;;;;;;2.54;100.00;101513.66;10370404;28;20371;-71
2023/03/16 04:43:27;;;;;;;5.35;2.70;;;;;;;2.56;100.00;101517.91;10374315;28;23021;-77
2023/03/16 04:48:28;;;;;;;5.15;3.25;;;;;;;2.63;100.00;101524.25;10389259;28;20069;-76
2023/03/16 04:53:30;;;;;;;9.40;2.63;;;;;;;2.67;100.00;101523.88;10405939;28;20041;-76
2023/03/16 04:58:31;;;;;;;7.82;3.47;;;;;;;2.71;100.00;101508.88;10335621;28;20116;-76
2023/03/16 05:03:33;;;;;;;6.68;2.90;;;;;;;2.72;100.00;101494.25;10349364;28;20056;-76
2023/03/16 05:08:34;;;;;;;6.93;3.13;;;;;;;2.73;100.00;101493.22;10371455;28;20048;-76
2023/03/16 05:13:34;;;;;;;5.80;3.45;;;;;;;2.74;100.00;101493.03;10403337;28;20516;-76
2023/03/16 05:18:35;;;;;;;8.40;4.22;;;;;;;2.76;100.00;101482.81;10405209;28;20425;-76
2023/03/16 05:23:35;;;;;;;6.22;3.45;;;;;;;2.68;100.00;101471.19;10388756;28;20048;-76
2023/03/16 05:28:36;;;;;;;12.27;4.35;;;;;;;2.83;100.00;101496.50;10388043;28;20149;-76
2023/03/16 05:33:37;;;;;;;6.53;3.03;;;;;;;2.68;100.00;101466.59;10399281;28;20049;-75
2023/03/16 05:38:38;;;;;;;7.18;3.45;;;;;;;2.80;100.00;101496.91;10347650;28;20049;-76
2023/03/16 05:43:38;;;;;;;7.03;3.35;;;;;;;2.89;100.00;101501.19;10347857;28;20410;-76
2023/03/16 05:48:39;;;;;;;7.65;3.03;;;;;;;2.83;100.00;101480.19;10388578;28;20045;-76
2023/03/16 05:53:39;;;;;;;8.25;3.35;;;;;;;2.90;100.00;101497.44;10411769;28;20033;-75
2023/03/16 05:58:41;;;;;;;4.95;3.08;;;;;;;2.97;100.00;101503.81;10413354;28;20030;-75
2023/03/16 06:03:41;;;;;;;4.53;3.22;;;;;;;2.85;100.00;101477.28;10394458;28;20037;-71
2023/03/16 06:08:42;;;;;;;5.65;3.17;;;;;;;2.93;100.00;101490.78;10377460;28;20130;-77
2023/03/16 06:13:42;;;;;;;6.60;3.75;;;;;;;3.04;100.00;101498.47;10393291;28;20037;-76
2023/03/16 06:18:43;;;;;;;8.20;3.80;;;;;;;3.07;100.00;101508.97;10390845;28;20121;-76
2023/03/16 06:23:43;;;;;;;9.07;3.60;;;;;;;3.12;100.00;101497.50;10392006;28;20041;-75
2023/03/16 06:28:44;;;;;;;5.20;3.15;;;;;;;3.20;100.00;101491.97;10411729;28;20097;-75
2023/03/16 06:33:44;;;;;;;7.72;3.60;;;;;;;3.29;100.00;101504.44;10379097;28;20486;-74
2023/03/16 06:38:45;;;;;;;5.18;3.03;;;;;;;3.31;100.00;101488.78;10410693;28;20061;-76
2023/03/16 06:43:45;;;;;;;4.65;3.05;;;;;;;3.36;100.00;101491.75;10409412;28;20036;-76
2023/03/16 06:48:46;;;;;;;7.32;3.28;;;;;;;3.39;100.00;101488.66;10409125;28;20045;-75
2023/03/16 06:53:46;;;;;;;5.72;3.05;;;;;;;3.32;100.00;101479.56;10350588;28;20034;-76
2023/03/16 06:58:47;;;;;;;6.15;2.70;;;;;;;3.49;100.00;101487.50;10336551;28;20045;-75
2023/03/16 07:03:48;;;;;;;6.45;3.40;;;;;;;3.58;100.00;101499.97;10368994;28;20045;-76
2023/03/16 07:08:48;;;;;;;10.98;3.17;;;;;;;3.44;100.00;101475.28;10392808;28;20049;-76
2023/03/16 07:13:49;;;;;;;7.50;2.85;;;;;;;3.59;100.00;101479.84;10362938;28;20081;-76
2023/03/16 07:18:51;;;;;;;7.30;3.17;;;;;;;3.71;100.00;101500.09;10349023;28;20112;-77
2023/03/16 07:23:51;;;;;;;4.50;2.88;;;;;;;3.78;100.00;101489.25;10407708;28;20057;-76
2023/03/16 07:28:52;;;;;;;7.13;2.70;;;;;;;3.77;100.00;101482.97;10359377;28;20033;-75
2023/03/16 07:33:52;;;;;;;5.38;2.70;;;;;;;3.90;100.00;101501.31;10392026;28;20049;-76
2023/03/16 07:38:53;;;;;;;6.85;2.83;;;;;;;3.93;100.00;101491.94;10391462;28;20044;-78
2023/03/16 07:43:53;;;;;;;11.80;4.50;;;;;;;3.95;100.00;101490.69;10374850;28;20080;-74
2023/03/16 07:48:54;;;;;;;4.65;2.55;;;;;;;3.97;100.00;101494.06;10407182;28;20072;-76
2023/03/16 07:53:54;;;;;;;5.65;3.00;;;;;;;4.00;100.00;101492.81;10390303;28;20070;-77
2023/03/16 07:58:55;;;;;;;9.35;3.70;;;;;;;4.03;100.00;101497.88;10375807;28;20556;-76
2023/03/16 08:03:55;;;;;;;5.80;2.97;;;;;;;4.04;100.00;101483.22;10407752;28;20513;-77
2023/03/16 08:08:56;;;;;;;6.20;3.53;;;;;;;4.21;100.00;101498.25;10334292;28;20037;-77
2023/03/16 08:13:56;;;;;;;5.15;3.38;;;;;;;4.19;100.00;101500.31;10339226;28;20092;-76
2023/03/16 08:18:57;;;;;;;6.95;3.72;;;;;;;4.34;100.00;101499.38;10325227;28;20053;-76
2023/03/16 08:23:57;;;;;;;7.47;3.67;;;;;;;4.38;100.00;101506.13;10341863;28;20041;-76
2023/03/16 08:29:01;;;;;;;5.95;3.47;;;;;;;4.37;100.00;101499.00;10366596;28;20398;-75
2023/03/16 08:34:02;;;;;;;6.72;3.53;;;;;;;4.52;100.00;101502.47;10365824;28;20042;-75
2023/03/16 08:39:04;;;;;;;5.07;3.42;;;;;;;4.70;100.00;101509.31;10349174;28;20092;-74
2023/03/16 08:44:06;;;;;;;9.13;3.35;;;;;;;4.43;100.00;101451.88;10364232;28;20240;-73
2023/03/16 08:49:07;;;;;;;6.13;3.28;;;;;;;4.96;100.00;101505.88;10364913;28;20042;-72
2023/03/16 08:54:07;;;;;;;7.35;3.85;;;;;;;4.89;100.00;101494.09;10364826;28;20053;-72
2023/03/16 08:59:08;;;;;;;6.50;3.70;;;;;;;4.83;100.00;101499.31;10349792;28;20045;-73
2023/03/16 09:04:08;;;;;;;7.50;3.72;;;;;;;4.78;100.00;101499.09;10364465;28;20046;-74
2023/03/16 09:09:09;;;;;;;6.95;3.35;;;;;;;4.23;100.00;101417.13;10314696;28;20053;-75
2023/03/16 09:14:10;;;;;;;6.00;3.65;;;;;;;4.83;100.00;101515.69;10388657;28;20044;-74
2023/03/16 09:19:12;;;;;;;5.78;3.28;;;;;;;4.87;100.00;101510.66;10409221;28;20044;-75
2023/03/16 09:24:13;;;;;;;11.15;4.05;;;;;;;5.03;100.00;101499.44;10373634;28;20034;-77
2023/03/16 09:29:13;;;;;;;6.07;3.65;;;;;;;5.13;100.00;101495.50;10394962;28;20037;-76
2023/03/16 09:34:14;;;;;;;6.78;3.85;;;;;;;5.03;100.00;101472.13;10353152;28;20036;-76
2023/03/16 09:39:14;;;;;;;6.85;3.95;;;;;;;5.28;100.00;101501.63;10353863;28;20073;-76
2023/03/16 09:44:53;;;;;;;6.05;4.15;;;;;;;5.34;100.00;101494.53;10382090;28;20069;-77
2023/03/16 09:49:54;;;;;;;6.78;3.60;;;;;;;5.37;100.00;101489.47;10415658;28;20110;-77
2023/03/16 09:55:19;;;;;;;8.98;4.30;;;;;;;5.54;100.00;101495.44;10348318;28;20141;-77
2023/03/16 10:00:24;;;;;;;13.05;5.18;;;;;;;5.70;100.00;101483.25;10393758;28;20065;-80
2023/03/16 10:05:24;;;;;;;7.53;4.40;;;;;;;5.74;100.00;101478.25;10393297;28;20490;-78
2023/03/16 10:10:55;;;;;;;10.30;4.20;;;;;;;5.98;100.00;101474.09;10347336;28;20061;-76
2023/03/16 10:15:55;;;;;;;8.43;3.33;;;;;;;6.34;100.00;101478.31;10353483;28;20060;-76
2023/03/16 10:20:57;;;;;;;5.72;3.78;;;;;;;6.39;100.00;101453.91;10308892;28;20038;-76
2023/03/16 10:25:57;;;;;;;9.23;4.00;;;;;;;6.57;100.00;101461.44;10345785;28;20034;-77
2023/03/16 10:30:59;;;;;;;7.60;4.07;;;;;;;6.56;100.00;101454.28;10315977;28;20061;-76
2023/03/16 10:36:04;;;;;;;9.38;4.25;;;;;;;6.79;100.00;101462.03;10310028;28;20038;-78
2023/03/16 10:41:17;;;;;;;9.35;5.07;;;;;;;6.85;100.00;101474.84;10387231;28;20046;-77
2023/03/16 10:46:17;;;;;;;13.00;4.00;;;;;;;6.85;100.00;101461.16;10391260;28;20088;-77
2023/03/16 10:51:18;;;;;;;7.18;4.15;;;;;;;6.72;100.00;101458.44;10344146;28;20033;-77
2023/03/16 10:56:21;;;;;;;6.95;3.72;;;;;;;6.63;100.00;101433.22;10335066;28;20045;-78
2023/03/16 11:01:27;;;;;;;11.25;5.80;;;;;;;6.53;100.00;101444.63;10386436;28;20121;-78
2023/03/16 11:06:29;;;;;;;7.10;4.17;;;;;;;6.42;100.00;101428.84;10362505;28;20034;-77
2023/03/16 11:11:31;;;;;;;6.70;4.18;;;;;;;6.34;100.00;101420.88;10348310;28;20053;-75
2023/03/16 11:16:59;;;;;;;7.20;4.20;;;;;;;6.30;100.00;101444.22;10326995;28;20049;-75
2023/03/16 11:22:01;;;;;;;10.68;4.65;;;;;;;6.13;100.00;101430.16;10345862;28;20050;-76
2023/03/16 11:27:03;;;;;;;7.22;4.03;;;;;;;5.59;100.00;101371.91;10348391;28;20049;-76
2023/03/16 11:32:04;;;;;;;7.57;4.43;;;;;;;5.97;100.00;101417.75;10319388;28;20045;-77
2023/03/16 11:37:26;;;;;;;9.05;4.93;;;;;;;5.92;100.00;101422.97;10331883;28;20485;-75
2023/03/16 11:42:35;;;;;;;7.13;4.55;;;;;;;5.87;100.00;101412.69;10400716;28;20051;-76
2023/03/16 11:47:54;;;;;;;9.20;4.93;;;;;;;5.79;100.00;101386.41;10401127;28;20099;-76
2023/03/16 11:53:37;;;;;;;8.77;4.90;;;;;;;5.70;100.00;101384.91;10328430;28;20034;-76
2023/03/16 11:58:59;;;;;;;9.13;4.65;;;;;;;5.78;100.00;101379.25;10324643;28;20050;-75
2023/03/16 12:04:19;;;;;;;7.70;4.43;;;;;;;6.06;100.00;101367.28;10340424;28;20030;-76
2023/03/16 12:09:57;;;;;;;8.57;5.38;;;;;;;6.10;100.00;101352.16;10400032;28;20501;-76
2023/03/16 12:15:20;;;;;;;8.55;5.00;;;;;;;5.96;100.00;101364.97;10387541;28;20041;-75
2023/03/16 12:20:30;;;;;;;7.85;4.80;;;;;;;5.82;100.00;101344.97;10364937;28;21645;-76
2023/03/16 12:25:33;;;;;;;9.43;4.93;;;;;;;5.94;100.00;101347.09;10358718;28;20391;-76
2023/03/16 12:30:39;;;;;;;7.35;4.35;;;;;;;5.98;100.00;101342.91;10331197;28;20486;-77
2023/03/16 12:35:46;;;;;;;7.35;4.00;;;;;;;6.03;100.00;101341.19;10379266;28;20115;-76
2023/03/16 12:41:05;;;;;;;8.00;4.25;;;;;;;6.36;100.00;101326.63;10368077;28;20037;-77
2023/03/16 12:46:15;;;;;;;8.38;4.10;;;;;;;6.86;100.00;101309.56;10366220;28;20401;-76
2023/03/16 12:51:16;;;;;;;8.98;3.88;;;;;;;7.45;100.00;101296.53;10370032;28;20041;-77
2023/03/16 12:56:18;;;;;;;6.82;3.55;;;;;;;7.88;100.00;101284.75;10356447;28;20038;-77
2023/03/16 13:01:19;;;;;;;6.13;3.88;;;;;;;8.09;100.00;101269.78;10345645;28;20038;-77
2023/03/16 13:06:23;;;;;;;7.97;4.38;;;;;;;8.41;100.00;101273.22;10393965;28;20030;-78
2023/03/16 13:11:24;;;;;;;7.40;2.92;;;;;;;8.60;100.00;101271.28;10346300;28;20037;-78
2023/03/16 13:16:29;;;;;;;4.75;3.33;;;;;;;8.74;100.00;101251.88;10370894;28;20038;-76
2023/03/16 13:21:35;;;;;;;5.35;2.97;;;;;;;8.45;100.00;101236.03;10344120;28;20037;-78
2023/03/16 13:26:40;;;;;;;5.00;3.15;;;;;;;8.18;100.00;101238.22;10372781;28;20549;-77
2023/03/16 13:31:41;;;;;;;7.17;2.50;;;;;;;8.09;100.00;101228.63;10344741;28;20068;-77
2023/03/16 13:36:43;;;;;;;6.38;2.88;;;;;;;8.13;100.00;101231.78;10361450;28;20096;-76
2023/03/16 13:41:58;;;;;;;3.42;2.63;;;;;;;8.02;100.00;101217.75;10346611;28;20429;-77
2023/03/16 13:47:02;;;;;;;4.97;2.97;;;;;;;8.09;100.00;101207.53;10361252;28;20030;-77
2023/03/16 13:52:04;;;;;;;6.15;3.30;;;;;;;8.21;100.00;101182.91;10396521;28;20116;-77
2023/03/16 13:57:07;;;;;;;4.00;2.28;;;;;;;8.33;100.00;101168.41;10385410;28;20050;-77
2023/03/16 14:02:18;;;;;;;6.15;2.85;;;;;;;9.06;100.00;101175.56;10386670;28;20064;-77
2023/03/16 14:07:19;;;;;;;4.90;3.60;;;;;;;9.85;100.00;101169.69;10395731;28;20053;-77
2023/03/16 14:12:20;;;;;;;3.97;2.42;;;;;;;11.15;100.00;101155.34;10352567;28;20053;-77
2023/03/16 14:17:20;;;;;;;5.30;2.20;;;;;;;11.27;100.00;101136.78;10349429;28;20062;-77
2023/03/16 14:22:24;;;;;;;5.47;2.05;;;;;;;10.84;100.00;101113.50;10351933;28;20068;-76
2023/03/16 14:27:28;;;;;;;4.25;2.30;;;;;;;10.46;100.00;101106.81;10390665;28;20041;-77
2023/03/16 14:32:30;;;;;;;5.38;2.40;;;;;;;10.02;100.00;101120.25;10394918;28;20087;-77
2023/03/16 14:37:34;;;;;;;4.47;1.80;;;;;;;9.41;100.00;101103.31;10394618;28;20052;-77
2023/03/16 14:42:36;;;;;;;6.35;1.92;;;;;;;9.40;100.00;101118.13;10392193;28;20045;-77
2023/03/16 14:47:39;;;;;;;6.15;3.17;;;;;;;9.30;100.00;101113.22;10376438;28;20072;-76
2023/03/16 14:52:40;;;;;;;3.42;1.95;;;;;;;9.06;100.00;101096.75;10410194;28;20073;-77
2023/03/16 14:57:41;;;;;;;3.58;1.88;;;;;;;9.01;100.00;101098.53;10391514;28;20432;-77
2023/03/16 15:02:43;;;;;;;3.75;2.35;;;;;;;8.99;100.00;101090.56;10409062;28;20169;-76
2023/03/16 15:07:45;;;;;;;6.72;2.15;;;;;;;9.12;100.00;101097.72;10383968;28;20045;-76
2023/03/16 15:12:52;;;;;;;7.07;2.13;;;;;;;9.25;100.00;101082.91;10383172;28;20040;-76
2023/03/16 15:17:53;;;;;;;4.97;2.33;;;;;;;9.62;100.00;101068.84;10368350;28;20069;-76
2023/03/16 15:22:55;;;;;;;3.80;1.98;;;;;;;9.72;100.00;101066.31;10375581;28;20038;-76
2023/03/16 15:27:56;;;;;;;3.60;2.15;;;;;;;10.13;100.00;101061.59;10410523;28;20048;-76
2023/03/16 15:32:56;;;;;;;3.80;2.50;;;;;;;10.20;100.00;101044.94;10411361;28;20044;-76
2023/03/16 15:37:57;;;;;;;4.55;2.03;;;;;;;10.24;100.00;101057.94;10407409;28;20057;-76
2023/03/16 15:42:58;;;;;;;5.07;1.95;;;;;;;10.01;100.00;101056.16;10407150;28;20041;-76
2023/03/16 15:47:58;;;;;;;3.47;1.92;;;;;;;9.77;100.00;101040.81;10391044;28;20045;-77
2023/03/16 15:53:02;;;;;;;5.18;1.98;;;;;;;9.92;100.00;101038.38;10406750;28;20042;-76
2023/03/16 15:58:04;;;;;;;3.47;1.85;;;;;;;9.69;100.00;101017.31;10391335;28;20041;-75
2023/03/16 16:03:05;;;;;;;7.05;1.98;;;;;;;9.84;100.00;101031.38;10373990;28;20025;-74
2023/03/16 16:08:05;;;;;;;5.68;2.08;;;;;;;9.90;100.00;101018.53;10402980;28;20402;-75
2023/03/16 16:13:12;;;;;;;3.83;1.73;;;;;;;9.56;100.00;101023.09;10367198;28;20041;-76
2023/03/16 16:18:25;;;;;;;7.22;2.15;;;;;;;9.51;100.00;101010.09;10398808;28;20049;-76
2023/03/16 16:23:26;;;;;;;6.18;2.25;;;;;;;9.56;100.00;101023.09;10374779;28;20038;-76
2023/03/16 16:28:31;;;;;;;6.75;2.30;;;;;;;9.41;100.00;101029.94;10388932;28;20481;-75
2023/03/16 16:33:32;;;;;;;5.40;2.42;;;;;;;9.28;100.00;101022.81;10375302;28;20088;-75
2023/03/16 16:38:33;;;;;;;3.45;1.90;;;;;;;8.78;100.00;101019.75;10405131;28;20089;-74
2023/03/16 16:43:41;;;;;;;5.70;2.40;;;;;;;8.58;100.00;101026.44;10406268;28;20096;-75
2023/03/16 16:48:46;;;;;;;9.35;2.03;;;;;;;8.36;100.00;101026.13;10388448;28;20069;-75
2023/03/16 16:53:47;;;;;;;5.75;2.17;;;;;;;8.13;100.00;101024.19;10405912;28;20136;-75
2023/03/16 16:58:48;;;;;;;3.65;1.88;;;;;;;7.93;100.00;101015.41;10350307;28;20041;-75
2023/03/16 17:03:48;;;;;;;4.88;1.95;;;;;;;7.72;100.00;101025.00;10378841;28;20068;-76
2023/03/16 17:08:49;;;;;;;4.00;2.85;;;;;;;7.68;100.00;101025.44;10332229;28;20045;-75
2023/03/16 17:13:49;;;;;;;5.78;2.28;;;;;;;7.51;100.00;101023.59;10362832;28;20030;-75
2023/03/16 17:18:50;;;;;;;3.58;2.30;;;;;;;7.20;100.00;101000.78;10330291;28;20049;-75
2023/03/16 17:23:53;;;;;;;4.68;2.22;;;;;;;7.03;100.00;100998.66;10364428;28;20411;-74
2023/03/16 17:29:01;;;;;;;3.38;2.17;;;;;;;6.89;100.00;100999.84;10310012;28;20065;-75
2023/03/16 17:34:05;;;;;;;9.80;2.53;;;;;;;6.80;100.00;101010.28;10346911;28;20121;-77
2023/03/16 17:39:14;;;;;;;6.72;2.40;;;;;;;6.66;100.00;101020.50;10315601;28;20038;-76
2023/03/16 17:44:14;;;;;;;4.75;2.75;;;;;;;6.53;100.00;101033.44;10369472;28;20105;-77
2023/03/16 17:49:19;;;;;;;6.00;2.35;;;;;;;6.33;100.00;101018.06;10356688;28;20038;-75
2023/03/16 17:54:20;;;;;;;4.13;1.90;;;;;;;6.12;100.00;101011.06;10374326;28;20728;-75
2023/03/16 17:59:20;;;;;;;6.07;2.35;;;;;;;6.01;100.00;101020.78;10378485;28;20097;-76
2023/03/16 18:04:23;;;;;;;5.93;2.85;;;;;;;5.90;100.00;101017.91;10379902;28;20041;-76
2023/03/16 18:09:23;;;;;;;3.35;2.10;;;;;;;5.93;100.00;101025.66;10379647;28;20048;-76
2023/03/16 18:14:34;;;;;;;3.13;2.17;;;;;;;5.78;100.00;101004.09;10412442;28;20398;-76
2023/03/16 18:19:35;;;;;;;3.45;2.22;;;;;;;5.81;100.00;101017.34;10396266;28;20041;-75
2023/03/16 18:24:35;;;;;;;4.35;2.20;;;;;;;5.80;100.00;101013.75;10412120;28;20037;-75
2023/03/16 18:29:36;;;;;;;6.85;2.80;;;;;;;5.73;100.00;101003.94;10394785;28;20048;-76
2023/03/16 18:34:36;;;;;;;4.00;2.42;;;;;;;5.72;100.00;100997.63;10394312;28;20049;-76
2023/03/16 18:39:37;;;;;;;4.10;2.33;;;;;;;5.85;100.00;100994.81;10410993;28;20052;-76
2023/03/16 18:44:38;;;;;;;3.35;1.88;;;;;;;5.92;100.00;100993.94;10394391;28;20037;-76
2023/03/16 18:49:38;;;;;;;4.00;2.40;;;;;;;5.90;100.00;100972.28;10394441;28;20041;-76
2023/03/16 18:54:39;;;;;;;3.75;2.08;;;;;;;5.93;100.00;100971.84;10391875;28;20033;-76
2023/03/16 18:59:39;;;;;;;4.53;2.38;;;;;;;5.93;100.00;100957.34;10358647;28;20044;-76
2023/03/16 19:04:40;;;;;;;3.17;2.13;;;;;;;6.00;100.00;100958.19;10426840;28;20048;-77
2023/03/16 19:09:41;;;;;;;7.53;2.47;;;;;;;6.05;100.00;100950.13;10434149;28;20033;-77
2023/03/16 19:14:42;;;;;;;3.83;2.08;;;;;;;6.00;100.00;100930.84;10433192;28;20041;-76
2023/03/16 19:19:42;;;;;;;3.55;2.17;;;;;;;6.09;100.00;100945.91;10431572;28;20059;-76
2023/03/16 19:24:50;;;;;;;4.90;1.95;;;;;;;6.00;100.00;100919.91;10416978;28;20044;-76
2023/03/16 19:29:51;;;;;;;3.75;2.20;;;;;;;6.07;100.00;100926.97;10433052;28;20071;-76
2023/03/16 19:34:52;;;;;;;3.42;1.90;;;;;;;6.16;100.00;100924.84;10410731;28;20033;-76
2023/03/16 19:39:53;;;;;;;3.17;2.03;;;;;;;6.05;100.00;100906.41;10407414;28;20059;-76
2023/03/16 19:44:53;;;;;;;3.97;2.47;;;;;;;5.80;100.00;100859.94;10431826;28;20042;-76
2023/03/16 19:49:54;;;;;;;4.05;2.72;;;;;;;6.16;100.00;100918.50;10415115;28;20040;-76
2023/03/16 19:54:54;;;;;;;8.02;2.83;;;;;;;6.10;100.00;100912.06;10432322;28;20037;-76
2023/03/16 19:59:55;;;;;;;4.45;2.30;;;;;;;6.20;100.00;100912.38;10446360;28;20033;-76
2023/03/16 20:04:56;;;;;;;4.55;2.13;;;;;;;6.24;100.00;100908.16;10447383;28;20041;-76
2023/03/16 20:09:56;;;;;;;4.18;2.17;;;;;;;6.20;100.00;100915.13;10415232;28;20084;-76
2023/03/16 20:14:58;;;;;;;4.53;2.47;;;;;;;6.10;100.00;100870.19;10398046;28;20059;-75
2023/03/16 20:19:58;;;;;;;3.85;2.30;;;;;;;6.17;100.00;100871.81;10431154;28;20037;-73
2023/03/16 20:25:00;;;;;;;6.22;2.53;;;;;;;6.10;100.00;100842.88;10415608;28;20071;-76
2023/03/16 20:30:01;;;;;;;3.53;2.25;;;;;;;6.15;100.00;100873.94;10417822;28;20040;-75
2023/03/16 20:35:02;;;;;;;9.80;2.70;;;;;;;6.14;100.00;100874.16;10397483;28;20032;-76
2023/03/16 20:40:03;;;;;;;4.55;2.78;;;;;;;6.17;100.00;100881.91;10430624;28;20063;-75
2023/03/16 20:45:21;;;;;;;6.80;2.42;;;;;;;6.11;100.00;100869.16;10414186;28;20040;-77
2023/03/16 20:50:27;;;;;;;3.70;2.50;;;;;;;6.10;100.00;100868.31;10395000;28;20041;-76
2023/03/16 20:55:27;;;;;;;3.80;2.47;;;;;;;5.99;100.00;100852.66;10383866;28;20071;-76
2023/03/16 21:00:29;;;;;;;5.15;2.90;;;;;;;6.10;100.00;100871.06;10402506;28;20045;-76
2023/03/16 21:05:30;;;;;;;4.15;2.63;;;;;;;5.74;100.00;100808.91;10364958;28;20057;-76
2023/03/16 21:10:31;;;;;;;4.22;2.90;;;;;;;5.89;100.00;100838.63;10353236;28;20036;-77
2023/03/16 21:15:32;;;;;;;7.95;3.88;;;;;;;5.97;100.00;100854.75;10393285;28;20079;-76
2023/03/16 21:20:34;;;;;;;8.45;3.25;;;;;;;5.99;100.00;100852.66;10437908;28;20129;-77
2023/03/16 21:25:37;;;;;;;7.15;3.10;;;;;;;6.06;100.00;100837.03;10450122;28;20045;-77
2023/03/16 21:30:41;;;;;;;8.95;3.53;;;;;;;6.22;100.00;100841.06;10420912;28;20052;-77
2023/03/16 21:35:41;;;;;;;5.03;2.70;;;;;;;6.29;100.00;100835.53;10380394;28;20453;-76
2023/03/16 21:40:43;;;;;;;7.15;3.03;;;;;;;6.32;100.00;100824.13;10397425;28;20234;-76
2023/03/16 21:45:44;;;;;;;4.13;2.90;;;;;;;6.29;100.00;100819.97;10379423;28;20402;-78
2023/03/16 21:50:44;;;;;;;4.82;2.80;;;;;;;6.48;100.00;100829.00;10378787;28;20092;-77
2023/03/16 21:55:46;;;;;;;6.53;2.50;;;;;;;6.48;100.00;100812.59;10365712;28;20038;-77
2023/03/16 22:00:47;;;;;;;5.30;2.88;;;;;;;6.59;100.00;100828.22;10380653;28;20109;-78
2023/03/16 22:05:48;;;;;;;3.15;1.95;;;;;;;6.58;100.00;100823.84;10395095;28;20053;-75
2023/03/16 22:10:50;;;;;;;7.65;2.53;;;;;;;6.49;100.00;100783.34;10429037;28;20097;-77
2023/03/16 22:15:51;;;;;;;6.30;2.60;;;;;;;6.58;100.00;100818.38;10455846;28;20048;-77
2023/03/16 22:20:52;;;;;;;6.40;2.22;;;;;;;6.69;100.00;100802.25;10435563;28;20679;-77
2023/03/16 22:25:53;;;;;;;4.13;2.35;;;;;;;6.66;100.00;100784.41;10424611;28;20052;-77
2023/03/16 22:30:55;;;;;;;6.47;2.38;;;;;;;6.62;100.00;100781.28;10417021;28;20071;-76
2023/03/16 22:36:05;;;;;;;5.15;2.15;;;;;;;6.56;100.00;100798.59;10401501;28;20419;-77
2023/03/16 22:41:05;;;;;;;5.28;2.00;;;;;;;6.60;100.00;100794.34;10369381;28;20053;-77
2023/03/16 22:46:19;;;;;;;5.57;2.33;;;;;;;6.63;100.00;100809.47;10394972;28;20038;-77
2023/03/16 22:51:25;;;;;;;4.32;2.08;;;;;;;6.43;100.00;100779.66;10415104;28;20056;-77
2023/03/16 22:56:26;;;;;;;;;;;;;;;6.50;100.00;100796.78;10445863;28;20033;-77
2023/03/16 23:01:34;;;;;;;4.68;2.15;;;;;;;6.41;100.00;100792.72;10390309;28;19921;-76
2023/03/16 23:06:35;;;;;;;4.88;2.50;;;;;;;6.14;100.00;100768.41;10433405;28;20147;-76
2023/03/16 23:11:35;;;;;;;4.63;2.47;;;;;;;6.21;100.00;100791.03;10453172;28;20037;-76